createdAt,value
2023-01-08T00:01:10.378Z,0.80
2023-01-08T00:04:12.431Z,0.93
2023-01-08T00:07:14.418Z,0.80
2023-01-08T00:10:17.117Z,3.33
2023-01-08T00:13:19.022Z,5.20
2023-01-08T00:16:22.223Z,6.13
2023-01-08T00:19:24.187Z,4.23
2023-01-08T00:22:26.906Z,7.33
2023-01-08T00:25:28.834Z,4.80
2023-01-08T00:28:31.060Z,1.63
2023-01-08T00:31:33.202Z,1.33
2023-01-08T00:34:35.085Z,1.60
2023-01-08T00:37:36.936Z,0.87
2023-01-08T00:40:41.303Z,0.73
2023-01-08T00:43:43.289Z,0.40
2023-01-08T00:46:45.267Z,0.60
2023-01-08T00:49:47.243Z,0.50
2023-01-08T00:52:49.462Z,0.50
2023-01-08T00:55:51.328Z,0.63
2023-01-08T00:58:53.248Z,0.50
2023-01-08T01:01:55.362Z,0.50
2023-01-08T01:04:58.558Z,0.57
2023-01-08T01:08:00.517Z,0.50
2023-01-08T01:11:11.071Z,0.70
2023-01-08T01:14:13.063Z,0.90
2023-01-08T01:17:15.311Z,0.90
2023-01-08T01:20:17.759Z,0.70
2023-01-08T01:23:20.833Z,0.70
2023-01-08T01:26:23.472Z,0.50
2023-01-08T01:29:26.250Z,0.53
2023-01-08T01:32:28.132Z,0.57
2023-01-08T01:35:30.352Z,0.70
2023-01-08T01:38:32.365Z,0.70
2023-01-08T01:41:40.877Z,0.60
2023-01-08T01:44:45.111Z,0.50
2023-01-08T01:48:03.931Z,1.00
2023-01-08T01:51:05.896Z,0.87
2023-01-08T01:54:10.404Z,0.90
2023-01-08T01:57:12.224Z,0.70
2023-01-08T02:00:14.608Z,0.60
2023-01-08T02:03:16.768Z,5.97
2023-01-08T02:06:38.230Z,1.23
2023-01-08T02:09:42.473Z,0.80
2023-01-08T02:12:57.165Z,0.37
2023-01-08T02:16:14.866Z,0.80
2023-01-08T02:19:44.961Z,1.37
2023-01-08T02:22:54.911Z,0.60
2023-01-08T02:25:59.762Z,0.90
2023-01-08T02:29:10.001Z,0.90
2023-01-08T02:32:12.106Z,0.80
2023-01-08T02:35:14.241Z,0.80
2023-01-08T02:38:18.540Z,0.70
2023-01-08T02:41:23.707Z,0.77
2023-01-08T02:45:01.236Z,0.67
2023-01-08T02:48:08.551Z,0.50
2023-01-08T02:51:48.702Z,0.70
2023-01-08T02:54:51.007Z,0.90
2023-01-08T02:57:53.711Z,1.00
2023-01-08T03:00:55.903Z,0.40
2023-01-08T03:04:00.921Z,0.40
2023-01-08T03:07:03.420Z,0.40
2023-01-08T03:10:06.351Z,0.40
2023-01-08T03:13:38.438Z,0.33
2023-01-08T03:16:56.502Z,0.70
2023-01-08T03:20:02.410Z,0.20
2023-01-08T03:23:07.241Z,0.40
2023-01-08T03:26:10.625Z,0.30
2023-01-08T03:29:15.521Z,0.40
2023-01-08T03:32:19.440Z,0.30
2023-01-08T03:35:23.398Z,0.30
2023-01-08T03:38:32.971Z,0.30
2023-01-08T03:41:36.716Z,0.40
2023-01-08T03:44:38.730Z,0.40
2023-01-08T03:47:42.079Z,0.50
2023-01-08T03:50:43.987Z,0.40
2023-01-08T03:53:47.965Z,0.40
2023-01-08T03:56:49.889Z,0.40
2023-01-08T03:59:51.835Z,0.37
2023-01-08T04:02:53.703Z,0.50
2023-01-08T04:05:55.547Z,0.70
2023-01-08T04:08:57.485Z,0.40
2023-01-08T04:11:59.415Z,0.60
2023-01-08T04:15:01.515Z,0.50
2023-01-08T04:18:07.626Z,0.80
2023-01-08T04:21:09.552Z,0.50
2023-01-08T04:24:13.764Z,0.80
2023-01-08T04:27:15.664Z,0.60
2023-01-08T04:30:17.651Z,0.53
2023-01-08T04:33:19.595Z,0.53
2023-01-08T04:36:21.680Z,0.50
2023-01-08T04:39:23.613Z,0.57
2023-01-08T04:42:25.562Z,0.40
2023-01-08T04:45:27.443Z,1.30
2023-01-08T04:48:30.431Z,0.80
2023-01-08T04:51:32.310Z,0.70
2023-01-08T04:54:34.200Z,0.60
2023-01-08T04:57:35.980Z,0.50
2023-01-08T05:00:39.654Z,0.70
2023-01-08T05:03:41.510Z,0.60
2023-01-08T05:06:43.568Z,0.50
2023-01-08T05:09:45.474Z,0.50
2023-01-08T05:12:47.403Z,0.43
2023-01-08T05:15:49.294Z,0.50
2023-01-08T05:18:51.263Z,0.67
2023-01-08T05:21:53.439Z,0.40
2023-01-08T05:24:55.782Z,0.47
2023-01-08T05:27:57.669Z,0.33
2023-01-08T05:30:59.756Z,0.50
2023-01-08T05:34:01.810Z,0.60
2023-01-08T05:37:04.119Z,0.60
2023-01-08T05:40:06.348Z,0.60
2023-01-08T05:43:08.491Z,0.47
2023-01-08T05:46:10.393Z,0.30
2023-01-08T05:49:12.345Z,0.40
2023-01-08T05:52:14.238Z,0.30
2023-01-08T05:55:16.910Z,0.50
2023-01-08T05:58:21.805Z,0.40
2023-01-08T06:01:23.827Z,1.30
2023-01-08T06:04:25.789Z,0.60
2023-01-08T06:07:29.590Z,0.60
2023-01-08T06:10:31.501Z,0.60
2023-01-08T06:13:34.623Z,0.50
2023-01-08T06:16:36.482Z,0.40
2023-01-08T06:19:39.698Z,0.47
2023-01-08T06:22:41.645Z,0.60
2023-01-08T06:25:43.585Z,0.50
2023-01-08T06:28:45.779Z,0.37
2023-01-08T06:31:48.207Z,0.53
2023-01-08T06:34:50.107Z,0.30
2023-01-08T06:37:52.029Z,0.40
2023-01-08T06:40:53.922Z,0.50
2023-01-08T06:43:55.893Z,0.50
2023-01-08T06:46:57.755Z,0.40
2023-01-08T06:49:59.663Z,0.57
2023-01-08T06:53:01.590Z,1.47
2023-01-08T06:56:04.849Z,5.67
2023-01-08T06:59:06.806Z,3.97
2023-01-08T07:02:14.204Z,1.80
2023-01-08T07:05:16.388Z,1.30
2023-01-08T07:08:19.212Z,0.87
2023-01-08T07:11:21.084Z,0.80
2023-01-08T07:14:23.024Z,2.30
2023-01-08T07:17:24.907Z,3.40
2023-01-08T07:20:27.192Z,1.03
2023-01-08T07:23:29.811Z,0.60
2023-01-08T07:26:31.954Z,0.60
2023-01-08T07:29:33.852Z,0.43
2023-01-08T07:32:35.809Z,0.53
2023-01-08T07:35:39.256Z,0.50
2023-01-08T07:38:42.049Z,0.50
2023-01-08T07:41:44.784Z,0.50
2023-01-08T07:44:46.667Z,0.60
2023-01-08T07:47:48.511Z,0.57
2023-01-08T07:50:51.025Z,0.80
2023-01-08T07:53:53.031Z,0.80
2023-01-08T07:56:55.435Z,0.80
2023-01-08T07:59:57.336Z,1.00
2023-01-08T08:03:04.387Z,12.07
2023-01-08T08:06:06.755Z,11.30
2023-01-08T08:09:09.165Z,4.67
2023-01-08T08:12:11.041Z,1.67
2023-01-08T08:15:13.548Z,0.70
2023-01-08T08:18:15.403Z,0.60
2023-01-08T08:21:17.326Z,0.40
2023-01-08T08:24:19.361Z,0.40
2023-01-08T08:27:23.149Z,0.40
2023-01-08T08:30:25.886Z,0.77
2023-01-08T08:33:27.833Z,0.90
2023-01-08T08:36:30.634Z,4.27
2023-01-08T08:39:32.944Z,4.80
2023-01-08T08:42:35.356Z,3.90
2023-01-08T08:45:37.588Z,1.93
2023-01-08T08:48:40.401Z,2.50
2023-01-08T08:51:53.314Z,1.10
2023-01-08T08:54:56.181Z,1.60
2023-01-08T08:58:11.067Z,1.30
2023-01-08T09:01:13.217Z,1.37
2023-01-08T09:04:15.231Z,1.40
2023-01-08T09:07:17.068Z,1.30
2023-01-08T09:10:19.135Z,4.70
2023-01-08T09:13:21.091Z,6.50
2023-01-08T09:16:23.050Z,4.77
2023-01-08T09:19:25.035Z,2.77
2023-01-08T09:22:26.983Z,3.00
2023-01-08T09:25:29.474Z,3.17
2023-01-08T09:28:31.978Z,2.60
2023-01-08T09:31:35.030Z,3.90
2023-01-08T09:34:37.124Z,3.10
2023-01-08T09:37:38.985Z,2.30
2023-01-08T09:40:45.788Z,4.07
2023-01-08T09:43:51.371Z,5.03
2023-01-08T09:46:55.707Z,4.63
2023-01-08T09:50:01.994Z,4.33
2023-01-08T09:53:03.976Z,4.63
2023-01-08T09:56:12.585Z,3.30
2023-01-08T09:59:17.486Z,3.43
2023-01-08T10:02:25.127Z,3.17
2023-01-08T10:05:29.047Z,2.57
2023-01-08T10:08:31.023Z,1.83
2023-01-08T10:11:45.500Z,1.70
2023-01-08T10:14:50.394Z,0.90
2023-01-08T10:18:07.350Z,1.10
2023-01-08T10:21:14.742Z,2.57
2023-01-08T10:24:17.109Z,0.80
2023-01-08T10:27:23.564Z,0.90
2023-01-08T10:30:31.289Z,0.90
2023-01-08T10:33:42.621Z,1.00
2023-01-08T10:36:44.568Z,1.13
2023-01-08T10:39:48.282Z,0.90
2023-01-08T10:42:51.707Z,1.30
2023-01-08T10:46:02.563Z,1.60
2023-01-08T10:49:06.033Z,1.20
2023-01-08T10:52:40.626Z,1.00
2023-01-08T10:55:42.653Z,0.80
2023-01-08T10:58:44.547Z,1.57
2023-01-08T11:01:51.030Z,1.57
2023-01-08T11:04:54.326Z,1.30
2023-01-08T11:07:58.483Z,1.60
2023-01-08T11:11:02.226Z,1.30
2023-01-08T11:14:06.770Z,1.30
2023-01-08T11:17:10.854Z,1.20
2023-01-08T11:20:28.756Z,1.00
2023-01-08T11:23:30.778Z,1.73
2023-01-08T11:26:33.097Z,2.10
2023-01-08T11:29:44.649Z,2.80
2023-01-08T11:32:50.094Z,2.60
2023-01-08T11:35:59.760Z,2.20
2023-01-08T11:39:02.683Z,1.60
2023-01-08T11:42:42.702Z,1.67
2023-01-08T11:46:18.262Z,1.30
2023-01-08T11:49:32.270Z,2.27
2023-01-08T11:53:08.504Z,1.90
2023-01-08T11:56:32.269Z,2.13
2023-01-08T11:59:48.058Z,1.93
2023-01-08T12:02:56.312Z,2.10
2023-01-08T12:06:14.201Z,2.33
2023-01-08T12:09:25.878Z,1.80
2023-01-08T12:12:31.117Z,2.10
2023-01-08T12:15:45.177Z,1.77
2023-01-08T12:19:14.928Z,1.83
2023-01-08T12:22:28.521Z,2.57
2023-01-08T12:25:56.818Z,2.47
2023-01-08T12:28:58.610Z,2.53
2023-01-08T12:32:20.126Z,2.17
2023-01-08T12:35:26.292Z,2.33
2023-01-08T12:38:40.791Z,2.50
2023-01-08T12:41:43.877Z,2.00
2023-01-08T12:44:46.457Z,2.10
2023-01-08T12:47:52.803Z,2.70
2023-01-08T12:51:19.406Z,2.57
2023-01-08T12:54:27.243Z,2.50
2023-01-08T12:57:32.435Z,2.50
2023-01-08T13:00:47.105Z,2.30
2023-01-08T13:03:49.498Z,3.47
2023-01-08T13:07:08.657Z,4.53
2023-01-08T13:10:25.302Z,3.87
2023-01-08T13:13:27.544Z,5.53
2023-01-08T13:16:32.739Z,6.23
2023-01-08T13:19:44.982Z,3.07
2023-01-08T13:22:53.943Z,2.50
2023-01-08T13:25:59.952Z,3.33
2023-01-08T13:29:28.217Z,2.13
2023-01-08T13:32:47.508Z,2.83
2023-01-08T13:35:50.038Z,2.80
2023-01-08T13:39:10.560Z,2.27
2023-01-08T13:42:14.525Z,2.57
2023-01-08T13:45:16.573Z,4.20
2023-01-08T13:48:26.906Z,4.13
2023-01-08T13:51:42.216Z,3.50
2023-01-08T13:54:44.635Z,3.43
2023-01-08T13:57:55.415Z,6.73
2023-01-08T14:00:58.102Z,5.43
2023-01-08T14:04:00.006Z,3.90
2023-01-08T14:07:11.783Z,2.80
2023-01-08T14:10:16.208Z,2.30
2023-01-08T14:13:21.635Z,3.00
2023-01-08T14:16:23.798Z,2.37
2023-01-08T14:19:27.159Z,2.30
2023-01-08T14:22:33.687Z,2.37
2023-01-08T14:25:36.005Z,2.77
2023-01-08T14:28:38.054Z,2.20
2023-01-08T14:31:50.599Z,2.10
2023-01-08T14:34:55.095Z,1.70
2023-01-08T14:37:57.494Z,2.10
2023-01-08T14:41:09.500Z,2.50
2023-01-08T14:44:15.328Z,3.47
2023-01-08T14:47:19.508Z,2.47
2023-01-08T14:50:33.937Z,2.87
2023-01-08T14:53:38.439Z,2.50
2023-01-08T14:56:40.728Z,3.23
2023-01-08T14:59:42.688Z,2.83
2023-01-08T15:02:46.738Z,3.63
2023-01-08T15:05:50.136Z,2.97
2023-01-08T15:08:52.599Z,3.23
2023-01-08T15:11:57.648Z,3.80
2023-01-08T15:15:12.644Z,4.10
2023-01-08T15:18:14.720Z,2.40
2023-01-08T15:21:22.442Z,2.37
2023-01-08T15:24:33.019Z,2.10
2023-01-08T15:27:37.614Z,2.43
2023-01-08T15:30:44.693Z,2.07
2023-01-08T15:33:46.591Z,2.30
2023-01-08T15:36:48.615Z,8.93
2023-01-08T15:39:51.432Z,7.73
2023-01-08T15:43:11.513Z,9.83
2023-01-08T15:46:13.647Z,9.07
2023-01-08T15:49:17.693Z,7.40
2023-01-08T15:52:22.270Z,6.80
2023-01-08T15:55:25.372Z,5.37
2023-01-08T15:58:27.400Z,3.53
2023-01-08T16:01:29.600Z,2.20
2023-01-08T16:04:31.886Z,2.30
2023-01-08T16:07:33.776Z,1.83
2023-01-08T16:10:36.019Z,3.00
2023-01-08T16:13:37.842Z,2.40
2023-01-08T16:16:40.060Z,3.23
2023-01-08T16:19:41.928Z,4.30
2023-01-08T16:22:43.988Z,5.83
2023-01-08T16:25:45.849Z,6.40
2023-01-08T16:28:48.143Z,5.80
2023-01-08T16:31:50.091Z,4.50
2023-01-08T16:34:52.842Z,4.77
2023-01-08T16:37:56.140Z,4.57
2023-01-08T16:40:58.705Z,5.43
2023-01-08T16:44:00.617Z,7.60
2023-01-08T16:47:02.614Z,4.27
2023-01-08T16:50:05.130Z,3.90
2023-01-08T16:53:07.449Z,6.90
2023-01-08T16:56:09.999Z,7.00
2023-01-08T16:59:22.779Z,6.60
2023-01-08T17:02:26.353Z,4.13
2023-01-08T17:05:28.886Z,5.17
2023-01-08T17:08:30.873Z,3.80
2023-01-08T17:11:32.868Z,4.80
2023-01-08T17:14:36.737Z,3.23
2023-01-08T17:17:38.667Z,2.43
2023-01-08T17:20:40.525Z,5.27
2023-01-08T17:23:42.620Z,2.67
2023-01-08T17:26:44.786Z,2.10
2023-01-08T17:29:46.812Z,1.13
2023-01-08T17:32:49.031Z,1.40
2023-01-08T17:35:51.016Z,0.90
2023-01-08T17:38:53.846Z,0.90
2023-01-08T17:42:14.757Z,1.00
2023-01-08T17:45:17.584Z,1.10
2023-01-08T17:48:19.542Z,1.20
2023-01-08T17:51:21.574Z,1.87
2023-01-08T17:54:24.824Z,1.87
2023-01-08T17:57:26.805Z,2.50
2023-01-08T18:00:28.800Z,2.63
2023-01-08T18:03:30.664Z,2.63
2023-01-08T18:06:32.606Z,2.10
2023-01-08T18:09:36.746Z,3.87
2023-01-08T18:12:41.174Z,2.40
2023-01-08T18:15:43.143Z,2.53
2023-01-08T18:18:45.191Z,1.90
2023-01-08T18:21:47.893Z,1.90
2023-01-08T18:24:51.429Z,1.53
2023-01-08T18:27:54.000Z,1.57
2023-01-08T18:30:55.852Z,1.50
2023-01-08T18:33:58.790Z,4.20
2023-01-08T18:37:01.079Z,5.27
2023-01-08T18:40:03.003Z,1.73
2023-01-08T18:43:05.049Z,1.20
2023-01-08T18:46:08.203Z,0.97
2023-01-08T18:49:10.894Z,2.33
2023-01-08T18:52:14.464Z,1.97
2023-01-08T18:55:16.422Z,1.53
2023-01-08T18:58:18.435Z,1.17
2023-01-08T19:01:20.616Z,2.07
2023-01-08T19:04:22.810Z,1.53
2023-01-08T19:07:26.132Z,1.00
2023-01-08T19:10:28.038Z,0.93
2023-01-08T19:13:30.264Z,1.37
2023-01-08T19:16:32.221Z,0.70
2023-01-08T19:19:35.024Z,1.50
2023-01-08T19:22:37.011Z,1.77
2023-01-08T19:25:40.493Z,1.30
2023-01-08T19:28:43.070Z,1.30
2023-01-08T19:31:45.680Z,1.47
2023-01-08T19:34:47.763Z,2.10
2023-01-08T19:37:49.720Z,0.70
2023-01-08T19:40:51.567Z,1.80
2023-01-08T19:43:55.014Z,2.00
2023-01-08T19:46:57.469Z,1.50
2023-01-08T19:49:59.561Z,0.87
2023-01-08T19:53:01.592Z,1.10
2023-01-08T19:56:08.982Z,1.30
2023-01-08T19:59:11.820Z,1.50
2023-01-08T20:02:14.198Z,1.30
2023-01-08T20:05:16.887Z,2.03
2023-01-08T20:08:19.554Z,2.83
2023-01-08T20:11:23.069Z,2.67
2023-01-08T20:14:24.992Z,3.70
2023-01-08T20:17:27.026Z,5.97
2023-01-08T20:20:29.216Z,23.80
2023-01-08T20:23:31.927Z,11.87
2023-01-08T20:26:37.271Z,4.00
2023-01-08T20:29:39.192Z,5.40
2023-01-08T20:32:43.379Z,6.67
2023-01-08T20:35:45.275Z,6.03
2023-01-08T20:38:51.913Z,5.13
2023-01-08T20:42:00.856Z,3.07
2023-01-08T20:45:05.984Z,3.60
2023-01-08T20:48:08.054Z,2.80
2023-01-08T20:51:13.000Z,2.20
2023-01-08T20:54:16.865Z,1.77
2023-01-08T20:57:18.865Z,2.10
2023-01-08T21:00:22.148Z,1.13
2023-01-08T21:03:24.041Z,0.70
2023-01-08T21:06:30.326Z,0.80
2023-01-08T21:09:32.967Z,1.10
2023-01-08T21:12:37.312Z,1.40
2023-01-08T21:15:39.553Z,1.00
2023-01-08T21:18:44.524Z,1.43
2023-01-08T21:21:47.043Z,1.20
2023-01-08T21:24:48.941Z,1.10
2023-01-08T21:27:50.895Z,1.50
2023-01-08T21:30:53.569Z,1.60
2023-01-08T21:33:57.157Z,1.87
2023-01-08T21:36:58.976Z,1.87
2023-01-08T21:40:00.888Z,2.00
2023-01-08T21:43:21.221Z,1.90
2023-01-08T21:46:27.618Z,1.17
2023-01-08T21:49:29.533Z,1.30
2023-01-08T21:52:50.991Z,1.17
2023-01-08T21:55:52.875Z,1.13
2023-01-08T21:58:54.769Z,1.50
2023-01-08T22:01:56.792Z,0.87
2023-01-08T22:04:59.166Z,1.47
2023-01-08T22:08:01.033Z,1.33
2023-01-08T22:11:07.586Z,1.67
2023-01-08T22:14:09.565Z,1.50
2023-01-08T22:17:11.993Z,1.20
2023-01-08T22:20:13.949Z,1.10
2023-01-08T22:23:16.125Z,1.13
2023-01-08T22:26:20.981Z,2.20
2023-01-08T22:29:23.072Z,1.50
2023-01-08T22:32:25.151Z,1.73
2023-01-08T22:35:28.805Z,1.50
2023-01-08T22:38:30.639Z,2.00
2023-01-08T22:41:32.536Z,1.53
2023-01-08T22:44:34.500Z,2.03
2023-01-08T22:47:36.462Z,2.00
2023-01-08T22:50:38.340Z,1.73
2023-01-08T22:53:40.799Z,1.57
2023-01-08T22:56:42.752Z,1.90
2023-01-08T22:59:44.755Z,1.57
2023-01-08T23:02:46.767Z,2.20
2023-01-08T23:05:49.470Z,2.40
2023-01-08T23:08:51.902Z,2.63
2023-01-08T23:11:54.912Z,2.20
2023-01-08T23:14:56.781Z,2.50
2023-01-08T23:17:58.671Z,1.93
2023-01-08T23:21:05.482Z,1.70
2023-01-08T23:24:12.144Z,1.90
2023-01-08T23:27:14.283Z,1.70
2023-01-08T23:30:16.724Z,1.47
2023-01-08T23:33:19.151Z,1.40
2023-01-08T23:36:21.993Z,1.50
2023-01-08T23:39:26.790Z,1.20
2023-01-08T23:42:29.787Z,1.70
2023-01-08T23:45:31.640Z,1.40
2023-01-08T23:48:35.591Z,1.73
2023-01-08T23:51:37.888Z,1.23
2023-01-08T23:54:39.876Z,1.50
2023-01-08T23:57:41.688Z,1.60
